createdAt,value
2022-12-25T00:02:21.893Z,4.80
2022-12-25T00:04:48.675Z,4.80
2022-12-25T00:07:15.438Z,4.80
2022-12-25T00:09:42.315Z,4.90
2022-12-25T00:12:09.232Z,5.00
2022-12-25T00:14:36.038Z,5.00
2022-12-25T00:17:02.879Z,5.10
2022-12-25T00:19:29.716Z,5.10
2022-12-25T00:21:56.517Z,5.40
2022-12-25T00:24:23.459Z,5.30
2022-12-25T00:26:50.566Z,5.40
2022-12-25T00:29:17.578Z,5.40
2022-12-25T00:31:44.589Z,5.50
2022-12-25T00:34:11.518Z,5.50
2022-12-25T00:36:41.829Z,5.40
2022-12-25T00:39:09.744Z,5.50
2022-12-25T00:41:54.889Z,5.30
2022-12-25T00:44:21.734Z,5.20
2022-12-25T00:46:48.763Z,5.20
2022-12-25T00:49:15.599Z,5.30
2022-12-25T00:51:42.431Z,5.20
2022-12-25T00:54:09.369Z,5.30
2022-12-25T00:56:36.438Z,5.40
2022-12-25T00:59:03.818Z,5.30
2022-12-25T01:01:31.292Z,5.30
2022-12-25T01:03:58.389Z,5.60
2022-12-25T01:06:25.585Z,5.50
2022-12-25T01:09:14.268Z,5.70
2022-12-25T01:11:41.400Z,5.80
2022-12-25T01:14:08.303Z,5.70
2022-12-25T01:16:35.884Z,5.70
2022-12-25T01:19:02.755Z,5.70
2022-12-25T01:21:30.017Z,5.50
2022-12-25T01:23:57.122Z,5.70
2022-12-25T01:26:28.707Z,5.60
2022-12-25T01:28:55.517Z,5.60
2022-12-25T01:31:24.808Z,5.60
2022-12-25T01:33:52.908Z,5.60
2022-12-25T01:36:19.637Z,5.50
2022-12-25T01:38:46.651Z,5.70
2022-12-25T01:41:16.232Z,5.70
2022-12-25T01:43:59.717Z,5.70
2022-12-25T01:46:26.493Z,5.80
2022-12-25T01:48:54.960Z,5.90
2022-12-25T01:51:30.202Z,5.80
2022-12-25T01:54:00.085Z,5.90
2022-12-25T01:56:28.682Z,5.90
2022-12-25T01:58:57.196Z,6.00
2022-12-25T02:01:24.162Z,6.00
2022-12-25T02:03:55.351Z,6.00
2022-12-25T02:06:22.343Z,6.10
2022-12-25T02:08:49.703Z,5.90
2022-12-25T02:11:36.415Z,5.80
2022-12-25T02:14:03.262Z,5.90
2022-12-25T02:16:35.289Z,5.90
2022-12-25T02:19:59.593Z,5.90
2022-12-25T02:23:08.896Z,5.80
2022-12-25T02:25:59.893Z,5.60
2022-12-25T02:28:45.985Z,5.50
2022-12-25T02:31:22.270Z,5.40
2022-12-25T02:34:05.087Z,5.20
2022-12-25T02:36:42.767Z,5.20
2022-12-25T02:39:37.604Z,5.20
2022-12-25T02:42:08.903Z,5.20
2022-12-25T02:44:59.193Z,5.20
2022-12-25T02:47:45.252Z,5.20
2022-12-25T02:50:45.493Z,5.20
2022-12-25T02:53:31.477Z,5.30
2022-12-25T02:56:18.124Z,5.20
2022-12-25T02:59:04.033Z,5.20
2022-12-25T03:01:51.695Z,5.20
2022-12-25T03:04:42.212Z,5.20
2022-12-25T03:07:17.471Z,5.30
2022-12-25T03:10:18.872Z,5.20
2022-12-25T03:13:13.225Z,5.20
2022-12-25T03:15:58.836Z,5.40
2022-12-25T03:18:28.702Z,5.70
2022-12-25T03:21:14.403Z,5.60
2022-12-25T03:24:03.497Z,5.70
2022-12-25T03:26:49.152Z,5.80
2022-12-25T03:29:35.829Z,5.90
2022-12-25T03:32:21.469Z,5.80
2022-12-25T03:35:23.412Z,6.00
2022-12-25T03:38:30.521Z,6.10
2022-12-25T03:41:42.744Z,6.20
2022-12-25T03:44:39.887Z,6.20
2022-12-25T03:47:21.960Z,6.30
2022-12-25T03:50:23.550Z,6.30
2022-12-25T03:53:11.360Z,6.40
2022-12-25T03:55:59.762Z,6.50
2022-12-25T03:58:46.699Z,6.40
2022-12-25T04:01:32.429Z,6.40
2022-12-25T04:04:17.796Z,6.40
2022-12-25T04:07:02.899Z,6.40
2022-12-25T04:09:47.917Z,6.50
2022-12-25T04:12:33.250Z,6.40
2022-12-25T04:15:18.424Z,6.60
2022-12-25T04:18:03.480Z,6.60
2022-12-25T04:20:48.424Z,6.60
2022-12-25T04:23:33.665Z,6.70
2022-12-25T04:26:19.018Z,6.70
2022-12-25T04:29:04.191Z,6.70
2022-12-25T04:31:49.904Z,6.60
2022-12-25T04:34:35.172Z,6.70
2022-12-25T04:37:01.939Z,6.80
2022-12-25T04:39:28.684Z,6.70
2022-12-25T04:41:55.421Z,6.80
2022-12-25T04:44:22.181Z,6.80
2022-12-25T04:46:49.094Z,6.80
2022-12-25T04:49:16.010Z,6.80
2022-12-25T04:51:42.833Z,6.80
2022-12-25T04:54:09.992Z,6.80
2022-12-25T04:56:45.821Z,6.80
2022-12-25T04:59:13.115Z,6.80
2022-12-25T05:01:40.232Z,6.80
2022-12-25T05:04:07.531Z,6.80
2022-12-25T05:06:34.294Z,6.80
2022-12-25T05:09:01.039Z,6.80
2022-12-25T05:11:27.776Z,6.80
2022-12-25T05:13:54.474Z,6.80
2022-12-25T05:16:21.606Z,6.90
2022-12-25T05:18:49.895Z,7.00
2022-12-25T05:21:17.215Z,6.80
2022-12-25T05:23:48.528Z,6.90
2022-12-25T05:26:17.274Z,6.90
2022-12-25T05:28:44.199Z,6.90
2022-12-25T05:31:11.360Z,6.90
2022-12-25T05:33:38.191Z,6.70
2022-12-25T05:36:07.300Z,6.90
2022-12-25T05:38:34.502Z,6.80
2022-12-25T05:41:01.666Z,6.80
2022-12-25T05:43:28.994Z,6.80
2022-12-25T05:45:55.813Z,6.80
2022-12-25T05:48:22.925Z,6.90
2022-12-25T05:50:52.881Z,7.00
2022-12-25T05:53:19.681Z,6.80
2022-12-25T05:55:46.508Z,6.80
2022-12-25T05:58:13.824Z,6.80
2022-12-25T06:00:43.355Z,6.90
2022-12-25T06:03:10.160Z,6.90
2022-12-25T06:05:39.751Z,6.80
2022-12-25T06:08:06.539Z,7.00
2022-12-25T06:10:33.284Z,7.00
2022-12-25T06:13:00.808Z,7.00
2022-12-25T06:15:27.707Z,7.00
2022-12-25T06:17:54.471Z,7.00
2022-12-25T06:20:21.391Z,7.00
2022-12-25T06:22:48.108Z,7.10
2022-12-25T06:25:15.015Z,7.10
2022-12-25T06:27:41.743Z,7.10
2022-12-25T06:30:09.247Z,7.00
2022-12-25T06:32:36.113Z,7.00
2022-12-25T06:35:03.271Z,7.00
2022-12-25T06:37:31.052Z,7.00
2022-12-25T06:39:57.941Z,7.10
2022-12-25T06:42:24.680Z,7.10
2022-12-25T06:44:51.567Z,6.90
2022-12-25T06:47:18.327Z,6.90
2022-12-25T06:49:45.106Z,6.90
2022-12-25T06:52:11.894Z,6.90
2022-12-25T06:54:38.787Z,6.90
2022-12-25T06:57:05.651Z,7.00
2022-12-25T06:59:32.399Z,6.90
2022-12-25T07:01:59.598Z,6.90
2022-12-25T07:04:38.154Z,6.90
2022-12-25T07:07:09.178Z,6.90
2022-12-25T07:09:38.837Z,6.90
2022-12-25T07:12:07.496Z,7.10
2022-12-25T07:14:34.732Z,6.90
2022-12-25T07:17:01.583Z,6.90
2022-12-25T07:19:28.575Z,6.80
2022-12-25T07:21:55.298Z,6.80
2022-12-25T07:24:23.303Z,6.80
2022-12-25T07:26:51.615Z,6.90
2022-12-25T07:29:22.023Z,7.00
2022-12-25T07:31:49.691Z,6.80
2022-12-25T07:34:19.741Z,6.70
2022-12-25T07:36:47.320Z,6.70
2022-12-25T07:39:14.240Z,6.70
2022-12-25T07:41:41.104Z,6.70
2022-12-25T07:44:07.859Z,6.70
2022-12-25T07:46:37.948Z,6.70
2022-12-25T07:49:04.862Z,6.70
2022-12-25T07:51:31.616Z,6.70
2022-12-25T07:53:58.449Z,6.70
2022-12-25T07:56:25.617Z,6.60
2022-12-25T07:58:52.409Z,6.70
2022-12-25T08:01:22.111Z,6.70
2022-12-25T08:04:00.503Z,6.70
2022-12-25T08:06:30.765Z,6.70
2022-12-25T08:09:02.771Z,6.80
2022-12-25T08:11:29.569Z,6.80
2022-12-25T08:13:56.532Z,6.90
2022-12-25T08:16:23.481Z,6.90
2022-12-25T08:18:50.403Z,7.00
2022-12-25T08:21:17.153Z,7.10
2022-12-25T08:23:46.158Z,7.20
2022-12-25T08:26:16.899Z,7.20
2022-12-25T08:28:43.777Z,7.20
2022-12-25T08:31:18.356Z,7.20
2022-12-25T08:33:45.812Z,7.10
2022-12-25T08:36:13.263Z,7.20
2022-12-25T08:38:40.612Z,7.30
2022-12-25T08:41:07.420Z,7.30
2022-12-25T08:43:34.386Z,7.30
2022-12-25T08:46:01.548Z,7.30
2022-12-25T08:48:28.608Z,7.20
2022-12-25T08:50:55.630Z,7.40
2022-12-25T08:53:22.600Z,7.40
2022-12-25T08:55:49.557Z,7.40
2022-12-25T08:58:16.709Z,7.40
2022-12-25T09:00:43.547Z,7.50
2022-12-25T09:03:10.524Z,7.50
2022-12-25T09:05:37.863Z,7.50
2022-12-25T09:08:05.035Z,7.60
2022-12-25T09:10:34.861Z,7.60
2022-12-25T09:13:01.602Z,7.70
2022-12-25T09:15:28.409Z,7.70
2022-12-25T09:17:55.274Z,7.80
2022-12-25T09:20:22.306Z,7.80
2022-12-25T09:22:49.172Z,7.80
2022-12-25T09:25:16.039Z,7.90
2022-12-25T09:27:43.682Z,7.90
2022-12-25T09:30:11.237Z,7.80
2022-12-25T09:32:40.428Z,7.90
2022-12-25T09:35:08.893Z,7.90
2022-12-25T09:37:36.249Z,7.90
2022-12-25T09:40:03.763Z,8.00
2022-12-25T09:42:32.412Z,8.00
2022-12-25T09:45:12.260Z,8.10
2022-12-25T09:47:41.908Z,8.00
2022-12-25T09:50:23.961Z,8.20
2022-12-25T09:53:04.924Z,8.10
2022-12-25T09:55:36.212Z,8.20
2022-12-25T09:58:10.635Z,8.10
2022-12-25T10:01:14.089Z,8.10
2022-12-25T10:03:46.700Z,8.20
2022-12-25T10:06:18.097Z,8.20
2022-12-25T10:09:19.863Z,8.30
2022-12-25T10:12:08.543Z,8.30
2022-12-25T10:18:23.536Z,8.40
2022-12-25T10:21:02.129Z,8.40
2022-12-25T10:23:47.360Z,8.40
2022-12-25T10:26:20.725Z,8.50
2022-12-25T10:28:53.895Z,8.50
2022-12-25T10:31:28.261Z,8.60
2022-12-25T10:33:55.761Z,8.40
2022-12-25T10:36:28.046Z,8.50
2022-12-25T10:38:55.523Z,8.60
2022-12-25T10:41:59.929Z,8.60
2022-12-25T10:44:26.794Z,8.60
2022-12-25T10:46:59.916Z,8.50
2022-12-25T10:49:34.189Z,8.60
2022-12-25T10:52:02.654Z,8.60
2022-12-25T10:54:37.528Z,8.60
2022-12-25T10:57:10.354Z,8.60
2022-12-25T10:59:57.777Z,8.60
2022-12-25T11:02:38.959Z,8.60
2022-12-25T11:05:09.244Z,8.80
2022-12-25T11:07:46.821Z,8.60
2022-12-25T11:10:16.977Z,8.70
2022-12-25T11:12:46.097Z,8.70
2022-12-25T11:15:34.024Z,8.70
2022-12-25T11:18:00.999Z,8.70
2022-12-25T11:20:27.997Z,8.70
2022-12-25T11:22:54.916Z,8.70
2022-12-25T11:25:27.486Z,8.70
2022-12-25T11:28:13.457Z,8.70
2022-12-25T11:30:40.912Z,8.80
2022-12-25T11:33:12.342Z,8.80
2022-12-25T11:35:52.992Z,8.80
2022-12-25T11:38:19.873Z,8.80
2022-12-25T11:40:53.346Z,8.90
2022-12-25T11:43:46.969Z,9.00
2022-12-25T11:46:23.560Z,9.00
2022-12-25T11:48:57.414Z,8.90
2022-12-25T11:51:29.187Z,8.90
2022-12-25T11:54:01.426Z,8.80
2022-12-25T11:56:30.760Z,8.90
2022-12-25T11:59:07.817Z,8.90
2022-12-25T12:01:42.502Z,8.90
2022-12-25T12:04:42.980Z,9.00
2022-12-25T12:07:27.627Z,9.00
2022-12-25T12:10:09.467Z,9.00
2022-12-25T12:12:49.091Z,9.00
2022-12-25T12:15:22.164Z,9.10
2022-12-25T12:17:48.966Z,9.10
2022-12-25T12:20:34.795Z,9.00
2022-12-25T12:23:05.233Z,9.00
2022-12-25T12:25:32.144Z,9.00
2022-12-25T12:28:05.336Z,9.00
2022-12-25T12:30:35.617Z,9.10
2022-12-25T12:33:05.214Z,9.10
2022-12-25T12:35:36.104Z,9.00
2022-12-25T12:38:07.009Z,9.10
2022-12-25T12:40:51.412Z,9.10
2022-12-25T12:43:28.512Z,9.00
2022-12-25T12:46:04.383Z,9.10
2022-12-25T12:48:39.133Z,9.00
2022-12-25T12:51:12.519Z,9.10
2022-12-25T12:53:41.937Z,9.10
2022-12-25T12:56:20.224Z,9.00
2022-12-25T12:58:52.371Z,9.10
2022-12-25T13:01:22.185Z,9.00
2022-12-25T13:04:19.893Z,8.90
2022-12-25T13:06:55.415Z,9.00
2022-12-25T13:09:27.960Z,9.00
2022-12-25T13:11:55.071Z,9.00
2022-12-25T13:14:24.352Z,9.00
2022-12-25T13:16:54.405Z,9.00
2022-12-25T13:19:23.954Z,9.10
2022-12-25T13:21:58.366Z,9.00
2022-12-25T13:24:30.463Z,8.90
2022-12-25T13:26:58.656Z,8.90
2022-12-25T13:29:34.480Z,8.90
2022-12-25T13:32:03.877Z,8.90
2022-12-25T13:34:31.954Z,8.90
2022-12-25T13:37:06.324Z,8.90
2022-12-25T13:39:36.534Z,8.90
2022-12-25T13:42:09.316Z,9.00
2022-12-25T13:44:44.205Z,8.90
2022-12-25T13:47:24.310Z,9.00
2022-12-25T13:49:56.058Z,8.90
2022-12-25T13:52:27.237Z,8.90
2022-12-25T13:54:55.804Z,8.90
2022-12-25T13:57:27.893Z,8.90
2022-12-25T13:59:55.440Z,8.90
2022-12-25T14:02:28.211Z,8.90
2022-12-25T14:04:55.324Z,8.90
2022-12-25T14:07:26.295Z,8.90
2022-12-25T14:10:03.463Z,8.90
2022-12-25T14:12:33.077Z,8.90
2022-12-25T14:15:18.548Z,8.90
2022-12-25T14:17:45.920Z,8.80
2022-12-25T14:20:25.106Z,8.90
2022-12-25T14:22:54.980Z,8.80
2022-12-25T14:25:41.322Z,8.80
2022-12-25T14:28:20.437Z,8.80
2022-12-25T14:30:48.562Z,8.80
2022-12-25T14:33:22.069Z,8.80
2022-12-25T14:35:49.778Z,8.80
2022-12-25T14:38:36.929Z,8.90
2022-12-25T14:41:22.605Z,8.80
2022-12-25T14:43:54.944Z,8.80
2022-12-25T14:46:26.943Z,9.00
2022-12-25T14:49:05.483Z,8.80
2022-12-25T14:51:35.258Z,8.80
2022-12-25T14:54:15.583Z,8.70
2022-12-25T14:56:48.239Z,8.90
2022-12-25T14:59:25.286Z,8.70
2022-12-25T15:01:58.656Z,8.80
2022-12-25T15:04:27.910Z,8.90
2022-12-25T15:07:00.790Z,8.70
2022-12-25T15:09:29.911Z,8.80
2022-12-25T15:11:56.986Z,8.80
2022-12-25T15:14:25.127Z,8.70
2022-12-25T15:16:55.274Z,8.70
2022-12-25T15:19:36.465Z,8.70
2022-12-25T15:22:04.223Z,8.70
2022-12-25T15:24:31.162Z,8.70
2022-12-25T15:27:00.298Z,8.70
2022-12-25T15:30:00.166Z,8.80
2022-12-25T15:32:24.325Z,8.80
2022-12-25T15:34:51.250Z,8.80
2022-12-25T15:37:19.000Z,8.70
2022-12-25T15:39:46.493Z,8.90
2022-12-25T15:42:15.703Z,8.90
2022-12-25T15:44:49.287Z,8.90
2022-12-25T15:47:23.063Z,8.90
2022-12-25T15:49:50.827Z,8.90
2022-12-25T15:52:19.236Z,8.90
2022-12-25T15:54:46.756Z,8.80
2022-12-25T15:57:22.269Z,8.90
2022-12-25T15:59:49.287Z,9.00
2022-12-25T16:02:19.383Z,8.90
2022-12-25T16:04:47.104Z,8.90
2022-12-25T16:07:19.103Z,9.00
2022-12-25T16:09:46.184Z,9.00
2022-12-25T16:12:13.078Z,9.00
2022-12-25T16:14:39.984Z,9.00
2022-12-25T16:17:07.380Z,9.00
2022-12-25T16:19:34.192Z,9.00
2022-12-25T16:22:01.032Z,9.00
2022-12-25T16:24:27.844Z,9.00
2022-12-25T16:26:57.300Z,9.00
2022-12-25T16:29:24.184Z,9.20
2022-12-25T16:31:50.928Z,9.00
2022-12-25T16:34:17.970Z,9.10
2022-12-25T16:36:44.813Z,9.10
2022-12-25T16:39:11.710Z,9.10
2022-12-25T16:41:38.517Z,9.00
2022-12-25T16:44:09.629Z,9.10
2022-12-25T16:46:37.502Z,9.00
2022-12-25T16:49:04.639Z,9.10
2022-12-25T16:51:32.065Z,9.00
2022-12-25T16:53:58.881Z,9.00
2022-12-25T16:56:28.256Z,9.10
2022-12-25T16:58:56.928Z,9.00
2022-12-25T17:01:26.747Z,9.10
2022-12-25T17:03:54.026Z,9.20
2022-12-25T17:06:24.404Z,9.10
2022-12-25T17:08:53.649Z,9.00
2022-12-25T17:11:24.363Z,9.00
2022-12-25T17:13:51.260Z,9.10
2022-12-25T17:16:20.717Z,9.00
2022-12-25T17:18:47.537Z,9.00
2022-12-25T17:21:17.415Z,9.00
2022-12-25T17:23:45.167Z,9.10
2022-12-25T17:26:12.135Z,9.00
2022-12-25T17:28:38.965Z,9.10
2022-12-25T17:31:08.169Z,8.90
2022-12-25T17:33:39.897Z,9.00
2022-12-25T17:36:10.087Z,9.00
2022-12-25T17:38:37.985Z,9.00
2022-12-25T17:41:06.822Z,9.00
2022-12-25T17:43:42.213Z,9.00
2022-12-25T17:46:13.362Z,9.00
2022-12-25T17:48:40.467Z,9.00
2022-12-25T17:51:10.592Z,9.10
2022-12-25T17:53:39.639Z,9.00
2022-12-25T17:56:07.791Z,9.00
2022-12-25T17:58:34.607Z,9.10
2022-12-25T18:01:22.628Z,9.10
2022-12-25T18:03:50.812Z,9.10
2022-12-25T18:06:21.786Z,9.10
2022-12-25T18:08:49.698Z,9.20
2022-12-25T18:11:20.637Z,9.20
2022-12-25T18:13:52.014Z,9.20
2022-12-25T18:16:21.737Z,9.20
2022-12-25T18:18:52.263Z,9.20
2022-12-25T18:21:21.603Z,9.20
2022-12-25T18:23:49.294Z,9.20
2022-12-25T18:26:16.598Z,9.20
2022-12-25T18:28:44.085Z,9.30
2022-12-25T18:31:23.385Z,9.40
2022-12-25T18:33:51.710Z,9.60
2022-12-25T18:36:21.381Z,9.70
2022-12-25T18:38:50.093Z,9.70
2022-12-25T18:41:18.262Z,9.80
2022-12-25T18:43:53.089Z,9.70
2022-12-25T18:46:24.778Z,9.90
2022-12-25T18:48:52.838Z,9.90
2022-12-25T18:51:20.050Z,9.90
2022-12-25T18:53:47.313Z,10.00
2022-12-25T18:56:17.693Z,10.00
2022-12-25T18:58:46.442Z,10.00
2022-12-25T19:01:19.726Z,9.90
2022-12-25T19:03:49.116Z,10.00
2022-12-25T19:06:25.497Z,10.00
2022-12-25T19:08:53.590Z,10.00
2022-12-25T19:11:21.485Z,10.00
2022-12-25T19:13:48.978Z,10.00
2022-12-25T19:16:16.163Z,10.00
2022-12-25T19:18:44.068Z,10.00
2022-12-25T19:21:11.656Z,9.90
2022-12-25T19:23:39.717Z,10.00
2022-12-25T19:26:08.295Z,10.00
2022-12-25T19:28:36.495Z,10.00
2022-12-25T19:31:04.720Z,10.00
2022-12-25T19:33:32.710Z,10.00
2022-12-25T19:36:01.449Z,10.00
2022-12-25T19:38:28.652Z,10.00
2022-12-25T19:41:01.446Z,10.00
2022-12-25T19:43:37.462Z,10.00
2022-12-25T19:46:05.737Z,10.10
2022-12-25T19:48:33.728Z,10.10
2022-12-25T19:51:01.128Z,10.00
2022-12-25T19:53:30.373Z,10.10
2022-12-25T19:56:03.122Z,10.10
2022-12-25T19:58:30.278Z,10.10
2022-12-25T20:01:09.229Z,10.10
2022-12-25T20:03:45.552Z,10.20
2022-12-25T20:06:20.613Z,10.20
2022-12-25T20:08:49.781Z,10.20
2022-12-25T20:11:17.736Z,10.20
2022-12-25T20:13:44.918Z,10.30
2022-12-25T20:16:12.038Z,10.30
2022-12-25T20:18:40.131Z,10.30
2022-12-25T20:21:15.395Z,10.30
2022-12-25T20:23:43.144Z,10.30
2022-12-25T20:26:11.231Z,10.30
2022-12-25T20:28:39.054Z,10.40
2022-12-25T20:31:07.506Z,10.30
2022-12-25T20:33:35.261Z,10.30
2022-12-25T20:36:04.075Z,10.30
2022-12-25T20:38:32.056Z,10.40
2022-12-25T20:43:54.599Z,10.40
2022-12-25T20:46:23.170Z,10.30
2022-12-25T20:48:50.385Z,10.40
2022-12-25T20:51:23.250Z,10.40
2022-12-25T20:53:50.717Z,10.30
2022-12-25T20:56:21.111Z,10.30
2022-12-25T20:58:48.106Z,10.30
2022-12-25T21:01:18.127Z,10.40
2022-12-25T21:03:45.821Z,10.30
2022-12-25T21:06:13.185Z,10.30
2022-12-25T21:08:43.717Z,10.30
2022-12-25T21:11:11.814Z,10.30
2022-12-25T21:13:40.966Z,10.20
2022-12-25T21:16:10.390Z,10.20
2022-12-25T21:18:48.688Z,10.30
2022-12-25T21:21:15.778Z,10.30
2022-12-25T21:23:42.846Z,10.30
2022-12-25T21:26:25.024Z,10.30
2022-12-25T21:28:54.671Z,10.30
2022-12-25T21:31:22.239Z,10.20
2022-12-25T21:33:52.227Z,10.30
2022-12-25T21:36:20.613Z,10.30
2022-12-25T21:38:47.956Z,10.30
2022-12-25T21:41:17.148Z,10.20
2022-12-25T21:43:44.100Z,10.20
2022-12-25T21:46:12.863Z,10.40
2022-12-25T21:52:10.131Z,10.20
2022-12-25T21:54:37.071Z,10.20
2022-12-25T21:57:04.953Z,10.20
2022-12-25T21:59:34.942Z,10.20
2022-12-25T22:02:01.892Z,10.20
2022-12-25T22:04:28.759Z,10.30
2022-12-25T22:07:13.959Z,10.20
2022-12-25T22:09:43.095Z,10.30
2022-12-25T22:12:34.404Z,10.30
2022-12-25T22:15:05.021Z,10.20
2022-12-25T22:17:56.878Z,10.20
2022-12-25T22:20:30.804Z,10.20
2022-12-25T22:22:58.442Z,10.10
2022-12-25T22:25:26.057Z,10.00
2022-12-25T22:27:54.805Z,10.00
2022-12-25T22:30:31.964Z,10.00
2022-12-25T22:32:58.790Z,9.90
2022-12-25T22:35:25.928Z,9.90
2022-12-25T22:37:54.197Z,9.80
2022-12-25T22:40:21.522Z,9.80
2022-12-25T22:42:48.430Z,9.80
2022-12-25T22:45:15.612Z,9.70
2022-12-25T22:47:45.142Z,9.70
2022-12-25T22:50:14.944Z,9.70
2022-12-25T22:52:42.623Z,9.60
2022-12-25T22:55:11.193Z,9.60
2022-12-25T22:57:38.276Z,9.60
2022-12-25T23:00:08.832Z,9.60
2022-12-25T23:02:35.945Z,9.60
2022-12-25T23:05:07.962Z,9.50
2022-12-25T23:07:34.806Z,9.50
2022-12-25T23:10:06.375Z,9.50
2022-12-25T23:12:52.344Z,9.50
2022-12-25T23:15:19.627Z,9.50
2022-12-25T23:18:04.921Z,9.40
2022-12-25T23:20:51.661Z,9.40
2022-12-25T23:23:37.084Z,9.60
2022-12-25T23:26:10.285Z,9.40
2022-12-25T23:28:58.591Z,9.40
2022-12-25T23:31:29.944Z,9.40
2022-12-25T23:33:57.441Z,9.40
2022-12-25T23:36:24.665Z,9.30
2022-12-25T23:38:51.528Z,9.40
2022-12-25T23:41:19.305Z,9.40
2022-12-25T23:43:46.198Z,9.40
2022-12-25T23:46:13.070Z,9.40
2022-12-25T23:48:39.969Z,9.40
2022-12-25T23:51:07.812Z,9.40
2022-12-25T23:53:35.094Z,9.30
2022-12-25T23:56:02.331Z,9.30
2022-12-25T23:58:29.602Z,9.30
